createdAt,value
2023-11-25T00:01:13.410Z,68.89
2023-11-25T00:06:15.900Z,68.72
2023-11-25T00:11:25.639Z,68.66
2023-11-25T00:16:31.676Z,68.11
2023-11-25T00:21:33.320Z,68.56
2023-11-25T00:26:34.827Z,68.96
2023-11-25T00:31:36.401Z,68.53
2023-11-25T00:36:38.031Z,68.30
2023-11-25T00:41:39.799Z,68.02
2023-11-25T00:46:41.537Z,68.10
2023-11-25T00:51:43.344Z,68.32
2023-11-25T00:56:45.070Z,68.09
2023-11-25T01:01:46.728Z,68.06
2023-11-25T01:06:48.552Z,68.08
2023-11-25T01:11:50.357Z,67.86
2023-11-25T01:16:52.096Z,67.66
2023-11-25T01:21:53.752Z,67.58
2023-11-25T01:26:55.665Z,67.48
2023-11-25T01:31:57.207Z,67.40
2023-11-25T01:36:58.699Z,67.57
2023-11-25T01:42:00.332Z,67.70
2023-11-25T01:47:02.521Z,67.29
2023-11-25T01:52:06.384Z,67.52
2023-11-25T01:57:09.632Z,67.38
2023-11-25T02:02:16.016Z,67.43
2023-11-25T02:07:18.061Z,67.48
2023-11-25T02:12:19.566Z,67.27
2023-11-25T02:17:22.504Z,67.30
2023-11-25T02:22:26.461Z,67.74
2023-11-25T02:27:27.962Z,67.32
2023-11-25T02:32:29.553Z,67.36
2023-11-25T02:37:31.456Z,67.65
2023-11-25T02:42:33.002Z,67.15
2023-11-25T02:47:34.650Z,67.38
2023-11-25T02:52:36.200Z,67.68
2023-11-25T02:57:44.868Z,67.35
2023-11-25T03:02:50.896Z,67.70
2023-11-25T03:07:52.430Z,67.89
2023-11-25T03:12:54.938Z,67.51
2023-11-25T03:17:56.876Z,66.82
2023-11-25T03:22:58.791Z,66.67
2023-11-25T03:28:05.758Z,66.83
2023-11-25T03:33:07.742Z,67.15
2023-11-25T03:38:09.768Z,66.64
2023-11-25T03:43:11.519Z,66.81
2023-11-25T03:48:13.157Z,66.83
2023-11-25T03:53:14.694Z,66.81
2023-11-25T03:58:16.347Z,67.05
2023-11-25T04:03:18.325Z,66.89
2023-11-25T04:08:20.061Z,67.25
2023-11-25T04:13:21.685Z,67.60
2023-11-25T04:18:23.355Z,67.64
2023-11-25T04:23:26.378Z,68.27
2023-11-25T04:28:29.131Z,67.11
2023-11-25T04:33:30.668Z,67.18
2023-11-25T04:38:32.306Z,67.60
2023-11-25T04:43:33.915Z,67.83
2023-11-25T04:48:35.528Z,67.65
2023-11-25T04:53:37.375Z,67.75
2023-11-25T04:58:41.130Z,67.53
2023-11-25T05:03:42.656Z,67.42
2023-11-25T05:08:46.656Z,67.19
2023-11-25T05:13:48.149Z,67.40
2023-11-25T05:18:49.715Z,67.19
2023-11-25T05:23:51.206Z,66.94
2023-11-25T05:28:52.700Z,67.56
2023-11-25T05:33:54.463Z,67.78
2023-11-25T05:38:56.389Z,68.23
2023-11-25T05:43:58.735Z,67.98
2023-11-25T05:49:00.442Z,67.71
2023-11-25T05:54:02.162Z,68.17
2023-11-25T05:59:06.384Z,67.85
2023-11-25T06:04:08.016Z,68.23
2023-11-25T06:09:13.373Z,67.84
2023-11-25T06:14:16.654Z,68.09
2023-11-25T06:19:19.492Z,67.36
2023-11-25T06:24:21.647Z,67.70
2023-11-25T06:29:23.845Z,67.80
2023-11-25T06:34:25.482Z,67.17
2023-11-25T06:39:27.168Z,67.47
2023-11-25T06:44:28.793Z,66.82
2023-11-25T06:49:30.295Z,66.98
2023-11-25T06:54:32.318Z,66.53
2023-11-25T06:59:35.101Z,66.85
2023-11-25T07:04:37.577Z,66.34
2023-11-25T07:09:39.071Z,66.53
2023-11-25T07:14:41.309Z,66.52
2023-11-25T07:19:43.837Z,66.26
2023-11-25T07:24:47.867Z,66.52
2023-11-25T07:29:50.526Z,65.97
2023-11-25T07:34:52.046Z,66.14
2023-11-25T07:39:54.461Z,66.75
2023-11-25T07:44:56.181Z,67.14
2023-11-25T07:49:57.748Z,67.05
2023-11-25T07:54:59.419Z,66.31
2023-11-25T08:00:00.873Z,66.24
2023-11-25T08:05:04.559Z,66.37
2023-11-25T08:10:08.705Z,66.80
2023-11-25T08:15:10.629Z,65.67
2023-11-25T08:20:12.427Z,66.65
2023-11-25T08:25:14.068Z,66.33
2023-11-25T08:30:16.027Z,66.06
2023-11-25T08:35:17.559Z,66.31
2023-11-25T08:40:22.511Z,66.03
2023-11-25T08:45:25.434Z,66.23
2023-11-25T08:50:26.847Z,66.57
2023-11-25T08:55:28.398Z,66.23
2023-11-25T09:00:30.361Z,66.26
2023-11-25T09:05:32.765Z,66.85
2023-11-25T09:10:36.093Z,66.64
2023-11-25T09:15:41.861Z,66.34
2023-11-25T09:20:43.929Z,66.16
2023-11-25T09:25:45.560Z,67.19
2023-11-25T09:30:47.615Z,67.42
2023-11-25T09:35:49.310Z,67.29
2023-11-25T09:40:50.927Z,67.38
2023-11-25T09:45:54.065Z,67.09
2023-11-25T09:50:55.660Z,67.12
2023-11-25T09:56:05.579Z,67.22
2023-11-25T10:01:07.890Z,67.60
2023-11-25T10:06:10.037Z,67.46
2023-11-25T10:11:15.625Z,68.06
2023-11-25T10:16:30.343Z,67.55
2023-11-25T10:21:36.387Z,67.57
2023-11-25T10:26:38.896Z,67.66
2023-11-25T10:31:42.993Z,66.88
2023-11-25T10:36:46.622Z,67.30
2023-11-25T10:41:52.178Z,67.02
2023-11-25T10:46:57.328Z,67.29
2023-11-25T10:52:03.068Z,67.09
2023-11-25T10:57:06.254Z,67.47
2023-11-25T11:02:16.277Z,67.47
2023-11-25T11:07:20.001Z,67.42
2023-11-25T11:12:28.243Z,66.70
2023-11-25T11:17:44.800Z,66.81
2023-11-25T11:22:47.219Z,66.30
2023-11-25T11:28:12.395Z,66.49
2023-11-25T11:33:15.927Z,66.72
2023-11-25T11:38:29.707Z,66.46
2023-11-25T11:43:31.393Z,66.86
2023-11-25T11:48:33.236Z,67.19
2023-11-25T11:53:35.220Z,67.53
2023-11-25T11:58:36.833Z,67.08
2023-11-25T12:03:39.287Z,67.57
2023-11-25T12:08:41.256Z,67.63
2023-11-25T12:13:43.395Z,67.78
2023-11-25T12:18:45.301Z,67.49
2023-11-25T12:23:51.692Z,67.83
2023-11-25T12:28:54.003Z,67.79
2023-11-25T12:33:58.531Z,67.27
2023-11-25T12:39:00.741Z,67.29
2023-11-25T12:44:11.722Z,68.12
2023-11-25T12:49:20.993Z,68.14
2023-11-25T12:54:22.899Z,67.51
2023-11-25T12:59:30.231Z,67.39
2023-11-25T13:04:32.047Z,67.21
2023-11-25T13:09:34.768Z,66.78
2023-11-25T13:14:38.959Z,66.61
2023-11-25T13:19:44.976Z,66.05
2023-11-25T13:24:47.144Z,66.16
2023-11-25T13:29:49.013Z,65.67
2023-11-25T13:34:51.952Z,65.07
2023-11-25T13:39:56.696Z,64.92
2023-11-25T13:44:59.367Z,65.05
2023-11-25T13:50:02.060Z,64.36
2023-11-25T13:55:13.898Z,64.32
2023-11-25T14:00:16.282Z,64.14
2023-11-25T14:05:19.668Z,63.49
2023-11-25T14:10:21.732Z,63.83
2023-11-25T14:15:23.518Z,63.92
2023-11-25T14:20:25.376Z,64.29
2023-11-25T14:25:27.429Z,64.85
2023-11-25T14:30:31.659Z,63.96
2023-11-25T14:35:33.742Z,63.86
2023-11-25T14:40:39.437Z,63.95
2023-11-25T14:45:41.582Z,63.80
2023-11-25T14:50:43.143Z,64.11
2023-11-25T14:55:47.956Z,64.74
2023-11-25T15:00:49.605Z,64.77
2023-11-25T15:05:51.766Z,64.61
2023-11-25T15:10:59.746Z,64.46
2023-11-25T15:16:04.983Z,65.33
2023-11-25T15:21:06.692Z,65.26
2023-11-25T15:26:08.270Z,65.60
2023-11-25T15:31:14.631Z,65.65
2023-11-25T15:36:16.799Z,65.78
2023-11-25T15:41:18.446Z,66.34
2023-11-25T15:46:20.181Z,66.19
2023-11-25T15:51:22.923Z,66.48
2023-11-25T15:56:24.565Z,65.92
2023-11-25T16:01:26.657Z,65.93
2023-11-25T16:06:28.370Z,66.69
2023-11-25T16:11:29.935Z,66.54
2023-11-25T16:16:33.169Z,66.26
2023-11-25T16:21:37.836Z,66.73
2023-11-25T16:26:39.492Z,66.45
2023-11-25T16:31:41.258Z,66.64
2023-11-25T16:36:42.801Z,66.89
2023-11-25T16:41:50.534Z,65.94
2023-11-25T16:46:52.309Z,66.83
2023-11-25T16:51:54.211Z,66.74
2023-11-25T16:56:55.910Z,66.31
2023-11-25T17:01:58.348Z,66.65
2023-11-25T17:07:02.196Z,66.60
2023-11-25T17:12:04.452Z,66.69
2023-11-25T17:17:09.558Z,67.05
2023-11-25T17:22:11.351Z,66.79
2023-11-25T17:27:12.924Z,67.26
2023-11-25T17:32:14.557Z,66.56
2023-11-25T17:37:18.021Z,66.24
2023-11-25T17:42:19.595Z,66.23
2023-11-25T17:47:21.154Z,65.47
2023-11-25T17:52:23.144Z,66.39
2023-11-25T17:57:24.726Z,66.51
2023-11-25T18:02:26.593Z,67.94
2023-11-25T18:07:28.734Z,68.03
2023-11-25T18:12:30.666Z,67.60
2023-11-25T18:17:33.213Z,67.51
2023-11-25T18:22:34.835Z,67.38
2023-11-25T18:27:36.377Z,67.35
2023-11-25T18:32:38.181Z,66.87
2023-11-25T18:37:39.859Z,67.09
2023-11-25T18:42:42.399Z,66.71
2023-11-25T18:47:44.054Z,67.48
2023-11-25T18:52:45.635Z,66.94
2023-11-25T18:57:47.318Z,66.34
2023-11-25T19:02:49.078Z,66.37
2023-11-25T19:07:51.269Z,66.58
2023-11-25T19:12:52.781Z,66.88
2023-11-25T19:17:54.469Z,66.68
2023-11-25T19:22:56.108Z,66.47
2023-11-25T19:27:57.575Z,66.14
2023-11-25T19:32:59.816Z,66.04
2023-11-25T19:38:01.798Z,66.61
2023-11-25T19:43:03.485Z,66.87
2023-11-25T19:48:05.445Z,66.72
2023-11-25T19:53:08.470Z,65.56
2023-11-25T19:58:11.024Z,66.38
2023-11-25T20:03:12.602Z,66.68
2023-11-25T20:08:14.643Z,66.89
2023-11-25T20:13:16.443Z,67.05
2023-11-25T20:18:19.218Z,66.96
2023-11-25T20:23:21.229Z,66.79
2023-11-25T20:28:23.715Z,67.29
2023-11-25T20:33:25.485Z,67.50
2023-11-25T20:38:27.444Z,67.43
2023-11-25T20:43:28.914Z,67.17
2023-11-25T20:48:30.416Z,67.75
2023-11-25T20:53:33.082Z,67.54
2023-11-25T20:58:34.855Z,67.27
2023-11-25T21:03:36.536Z,67.42
2023-11-25T21:08:38.141Z,67.72
2023-11-25T21:13:40.046Z,67.68
2023-11-25T21:18:41.623Z,67.83
2023-11-25T21:23:43.125Z,68.46
2023-11-25T21:28:44.587Z,67.92
2023-11-25T21:33:46.378Z,67.88
2023-11-25T21:38:48.080Z,68.25
2023-11-25T21:43:49.715Z,68.63
2023-11-25T21:48:51.378Z,67.91
2023-11-25T21:53:52.992Z,68.05
2023-11-25T21:58:54.541Z,67.76
2023-11-25T22:03:56.944Z,67.98
2023-11-25T22:08:59.185Z,68.40
2023-11-25T22:14:01.366Z,68.42
2023-11-25T22:19:02.922Z,68.02
2023-11-25T22:24:04.874Z,67.77
2023-11-25T22:29:06.888Z,68.23
2023-11-25T22:34:08.765Z,67.73
2023-11-25T22:39:10.327Z,67.61
2023-11-25T22:44:11.838Z,68.12
2023-11-25T22:49:13.795Z,67.35
2023-11-25T22:54:18.420Z,67.98
2023-11-25T22:59:19.999Z,67.74
2023-11-25T23:04:21.522Z,68.10
2023-11-25T23:09:23.604Z,67.92
2023-11-25T23:14:25.256Z,67.64
2023-11-25T23:19:26.831Z,68.08
2023-11-25T23:24:28.334Z,67.52
2023-11-25T23:29:31.156Z,67.14
2023-11-25T23:34:33.389Z,67.72
2023-11-25T23:39:34.839Z,67.06
2023-11-25T23:44:36.690Z,66.98
2023-11-25T23:49:38.226Z,66.86
2023-11-25T23:54:43.410Z,66.79
2023-11-25T23:59:45.821Z,66.89
